createdAt,value
2023-10-31T00:01:28.033Z,39.50
2023-10-31T00:04:20.141Z,35.90
2023-10-31T00:07:04.228Z,38.70
2023-10-31T00:09:50.328Z,37.00
2023-10-31T00:12:36.373Z,36.30
2023-10-31T00:15:22.417Z,43.20
2023-10-31T00:18:06.037Z,36.40
2023-10-31T00:20:51.416Z,39.50
2023-10-31T00:23:45.929Z,41.70
2023-10-31T00:26:32.299Z,38.90
2023-10-31T00:29:18.706Z,34.70
2023-10-31T00:32:06.991Z,35.40
2023-10-31T00:34:53.774Z,32.80
2023-10-31T00:37:42.040Z,36.00
2023-10-31T00:40:27.648Z,34.80
2023-10-31T00:43:22.048Z,32.70
2023-10-31T00:46:08.242Z,36.20
2023-10-31T00:48:54.420Z,27.60
2023-10-31T00:51:37.696Z,30.40
2023-10-31T00:54:32.326Z,30.00
2023-10-31T00:57:31.210Z,29.10
2023-10-31T01:00:15.256Z,27.50
2023-10-31T01:03:06.221Z,25.50
2023-10-31T01:06:00.759Z,25.10
2023-10-31T01:08:51.370Z,25.50
2023-10-31T01:11:40.570Z,22.60
2023-10-31T01:14:36.318Z,25.40
2023-10-31T01:17:25.315Z,23.10
2023-10-31T01:20:13.442Z,28.10
2023-10-31T01:22:57.170Z,25.50
2023-10-31T01:25:46.619Z,23.10
2023-10-31T01:28:29.963Z,24.30
2023-10-31T01:31:49.180Z,24.80
2023-10-31T01:34:42.792Z,24.50
2023-10-31T01:37:26.816Z,22.90
2023-10-31T01:40:21.358Z,26.60
2023-10-31T01:43:10.920Z,25.70
2023-10-31T01:46:02.369Z,26.20
2023-10-31T01:48:51.587Z,25.80
2023-10-31T01:51:41.445Z,26.80
2023-10-31T01:54:38.399Z,24.50
2023-10-31T01:57:26.199Z,21.50
2023-10-31T02:00:10.179Z,26.30
2023-10-31T02:03:08.963Z,21.60
2023-10-31T02:06:03.536Z,22.40
2023-10-31T02:08:57.133Z,23.30
2023-10-31T02:11:46.550Z,23.80
2023-10-31T02:14:32.993Z,24.30
2023-10-31T02:17:25.777Z,25.00
2023-10-31T02:20:12.500Z,19.60
2023-10-31T02:23:01.129Z,23.20
2023-10-31T02:25:49.748Z,24.00
2023-10-31T02:28:44.313Z,22.40
2023-10-31T02:31:34.284Z,21.10
2023-10-31T02:34:31.371Z,21.90
2023-10-31T02:37:28.380Z,24.10
2023-10-31T02:40:24.031Z,20.70
2023-10-31T02:43:12.581Z,23.30
2023-10-31T02:46:17.076Z,20.60
2023-10-31T02:49:28.166Z,21.70
2023-10-31T02:52:25.390Z,21.80
2023-10-31T02:55:19.866Z,22.70
2023-10-31T02:58:24.251Z,19.40
2023-10-31T03:01:10.128Z,19.40
2023-10-31T03:04:05.301Z,20.20
2023-10-31T03:06:48.860Z,18.10
2023-10-31T03:09:43.032Z,20.20
2023-10-31T03:12:39.641Z,23.50
2023-10-31T03:15:23.143Z,21.40
2023-10-31T03:18:08.848Z,22.50
2023-10-31T03:21:07.578Z,20.00
2023-10-31T03:23:56.835Z,19.60
2023-10-31T03:26:40.490Z,22.30
2023-10-31T03:29:24.122Z,23.70
2023-10-31T03:32:30.444Z,17.30
2023-10-31T03:35:16.288Z,15.60
2023-10-31T03:38:02.058Z,17.20
2023-10-31T03:40:45.646Z,20.70
2023-10-31T03:43:34.449Z,25.30
2023-10-31T03:46:20.398Z,18.50
2023-10-31T03:49:26.839Z,18.90
2023-10-31T03:52:20.996Z,16.20
2023-10-31T03:55:18.418Z,19.60
2023-10-31T03:58:10.709Z,18.40
2023-10-31T04:00:54.502Z,22.20
2023-10-31T04:03:40.503Z,19.60
2023-10-31T04:06:29.346Z,19.10
2023-10-31T04:09:15.125Z,17.70
2023-10-31T04:12:01.461Z,17.30
2023-10-31T04:14:47.564Z,19.80
2023-10-31T04:18:00.920Z,23.40
2023-10-31T04:20:46.736Z,20.90
2023-10-31T04:23:32.439Z,17.10
2023-10-31T04:26:18.824Z,19.10
2023-10-31T04:29:17.490Z,17.80
2023-10-31T04:32:09.802Z,20.30
2023-10-31T04:34:53.240Z,15.20
2023-10-31T04:37:45.816Z,19.10
2023-10-31T04:40:32.227Z,14.40
2023-10-31T04:43:15.584Z,17.10
2023-10-31T04:45:58.781Z,16.40
2023-10-31T04:48:46.591Z,14.20
2023-10-31T04:51:34.942Z,18.40
2023-10-31T04:54:17.872Z,21.50
2023-10-31T04:57:05.223Z,16.20
2023-10-31T04:59:51.015Z,17.90
2023-10-31T05:02:37.788Z,14.50
2023-10-31T05:05:24.068Z,17.10
2023-10-31T05:08:07.543Z,18.60
2023-10-31T05:10:51.116Z,15.00
2023-10-31T05:13:47.991Z,16.70
2023-10-31T05:16:40.793Z,21.30
2023-10-31T05:22:18.940Z,16.00
2023-10-31T05:25:08.479Z,17.80
2023-10-31T05:27:54.148Z,16.20
2023-10-31T05:30:40.506Z,14.80
2023-10-31T05:33:27.171Z,16.70
2023-10-31T05:36:36.512Z,16.60
2023-10-31T05:39:43.127Z,15.40
2023-10-31T05:42:38.916Z,15.30
2023-10-31T05:45:32.257Z,16.70
2023-10-31T05:48:27.045Z,14.40
2023-10-31T05:51:36.914Z,18.20
2023-10-31T05:54:49.948Z,19.10
2023-10-31T05:57:36.411Z,15.20
2023-10-31T06:00:39.440Z,16.20
2023-10-31T06:03:25.797Z,18.60
2023-10-31T06:06:09.381Z,17.20
2023-10-31T06:08:58.603Z,16.10
2023-10-31T06:11:45.526Z,16.90
2023-10-31T06:14:38.831Z,22.70
2023-10-31T06:17:22.328Z,37.10
2023-10-31T06:20:11.773Z,33.60
2023-10-31T06:23:04.776Z,31.70
2023-10-31T06:25:48.137Z,34.50
2023-10-31T06:28:52.534Z,33.40
2023-10-31T06:31:51.541Z,33.00
2023-10-31T06:34:48.594Z,30.50
2023-10-31T06:37:31.908Z,34.50
2023-10-31T06:40:18.105Z,31.90
2023-10-31T06:43:20.394Z,33.90
2023-10-31T06:46:06.880Z,26.50
2023-10-31T06:48:49.991Z,26.40
2023-10-31T06:51:38.986Z,26.10
2023-10-31T06:54:23.263Z,27.50
2023-10-31T06:57:18.721Z,26.20
2023-10-31T07:00:02.605Z,26.40
2023-10-31T07:02:53.221Z,27.40
2023-10-31T07:05:50.261Z,27.60
2023-10-31T07:08:45.128Z,24.10
2023-10-31T07:11:31.668Z,24.30
2023-10-31T07:14:18.439Z,23.10
2023-10-31T07:17:21.997Z,24.10
2023-10-31T07:20:27.804Z,23.60
2023-10-31T07:23:11.040Z,23.40
2023-10-31T07:25:54.138Z,21.80
2023-10-31T07:28:37.233Z,24.20
2023-10-31T07:31:23.449Z,24.20
2023-10-31T07:34:07.116Z,22.00
2023-10-31T07:36:50.219Z,22.70
2023-10-31T07:39:33.360Z,20.20
2023-10-31T07:42:19.526Z,23.40
2023-10-31T07:45:02.485Z,20.20
2023-10-31T07:47:45.586Z,25.70
2023-10-31T07:50:28.839Z,19.10
2023-10-31T07:53:15.139Z,19.40
2023-10-31T07:55:58.271Z,16.40
2023-10-31T07:58:41.330Z,16.20
2023-10-31T08:01:24.436Z,18.20
2023-10-31T08:04:07.922Z,15.10
2023-10-31T08:06:54.295Z,16.10
2023-10-31T08:09:37.518Z,15.80
2023-10-31T08:12:20.689Z,16.40
2023-10-31T08:15:06.777Z,15.30
2023-10-31T08:17:52.966Z,15.50
2023-10-31T08:20:36.425Z,14.70
2023-10-31T08:23:19.717Z,16.40
2023-10-31T08:26:03.032Z,14.60
2023-10-31T08:28:46.080Z,13.70
2023-10-31T08:31:29.251Z,13.00
2023-10-31T08:34:22.096Z,15.20
2023-10-31T08:37:05.118Z,13.30
2023-10-31T08:39:48.370Z,15.00
2023-10-31T08:42:32.017Z,14.40
2023-10-31T08:45:15.275Z,14.70
2023-10-31T08:47:58.582Z,16.50
2023-10-31T08:50:42.017Z,17.70
2023-10-31T08:53:25.777Z,16.50
2023-10-31T08:56:09.705Z,17.10
2023-10-31T08:58:53.042Z,16.10
2023-10-31T09:01:36.155Z,15.00
2023-10-31T09:04:21.937Z,13.10
2023-10-31T09:07:15.415Z,16.00
2023-10-31T09:10:01.571Z,13.10
2023-10-31T09:12:45.252Z,12.20
2023-10-31T09:15:31.326Z,10.80
2023-10-31T09:18:35.783Z,9.60
2023-10-31T09:21:21.445Z,10.90
2023-10-31T09:24:05.432Z,10.50
2023-10-31T09:26:51.604Z,10.70
2023-10-31T09:29:37.816Z,13.00
2023-10-31T09:32:26.456Z,9.20
2023-10-31T09:35:11.009Z,7.90
2023-10-31T09:37:54.930Z,8.40
2023-10-31T09:40:39.885Z,6.20
2023-10-31T09:43:26.060Z,6.10
2023-10-31T09:46:11.777Z,8.10
2023-10-31T09:48:55.170Z,6.90
2023-10-31T09:51:43.633Z,6.90
2023-10-31T09:54:28.183Z,5.50
2023-10-31T09:57:12.412Z,6.90
2023-10-31T09:59:59.022Z,6.20
2023-10-31T10:02:56.429Z,4.50
2023-10-31T10:05:44.551Z,4.60
2023-10-31T10:08:30.556Z,7.70
2023-10-31T10:11:32.625Z,7.40
2023-10-31T10:14:21.088Z,7.40
2023-10-31T10:17:24.527Z,7.30
2023-10-31T10:20:14.893Z,4.10
2023-10-31T10:23:06.050Z,6.90
2023-10-31T10:25:53.403Z,6.20
2023-10-31T10:28:40.587Z,6.30
2023-10-31T10:31:27.532Z,10.10
2023-10-31T10:34:13.256Z,10.00
2023-10-31T10:36:58.317Z,4.70
2023-10-31T10:39:45.353Z,6.80
2023-10-31T10:42:49.004Z,6.30
2023-10-31T10:45:32.187Z,6.70
2023-10-31T10:48:18.404Z,5.90
2023-10-31T10:51:11.709Z,8.10
2023-10-31T10:54:36.739Z,6.80
2023-10-31T10:57:43.196Z,7.20
2023-10-31T11:00:28.199Z,8.30
2023-10-31T11:03:12.408Z,8.80
2023-10-31T11:05:55.844Z,6.50
2023-10-31T11:08:39.705Z,5.90
2023-10-31T11:11:24.411Z,3.80
2023-10-31T11:14:09.892Z,4.50
2023-10-31T11:16:56.711Z,5.50
2023-10-31T11:19:40.380Z,8.90
2023-10-31T11:22:25.240Z,5.10
2023-10-31T11:25:16.589Z,3.70
2023-10-31T11:28:14.252Z,4.60
2023-10-31T11:31:02.272Z,5.00
2023-10-31T11:33:48.682Z,4.30
2023-10-31T11:36:35.779Z,3.60
2023-10-31T11:39:29.556Z,2.90
2023-10-31T11:42:20.867Z,3.90
2023-10-31T11:45:04.559Z,4.30
2023-10-31T11:47:53.780Z,3.20
2023-10-31T11:50:38.801Z,6.40
2023-10-31T11:53:24.455Z,4.80
2023-10-31T11:56:10.897Z,10.60
2023-10-31T11:59:03.838Z,7.90
2023-10-31T12:01:48.505Z,9.10
2023-10-31T12:04:36.990Z,5.70
2023-10-31T12:07:20.608Z,2.30
2023-10-31T12:10:03.765Z,6.30
2023-10-31T12:12:46.952Z,7.70
2023-10-31T12:15:30.284Z,4.80
2023-10-31T12:18:13.519Z,3.00
2023-10-31T12:20:57.778Z,3.60
2023-10-31T12:24:00.982Z,5.60
2023-10-31T12:26:46.005Z,2.70
2023-10-31T12:29:29.176Z,2.10
2023-10-31T12:32:14.403Z,5.80
2023-10-31T12:35:00.119Z,2.60
2023-10-31T12:37:58.608Z,4.70
2023-10-31T12:40:44.059Z,3.10
2023-10-31T12:43:28.598Z,3.70
2023-10-31T12:46:32.044Z,6.10
2023-10-31T12:49:19.468Z,4.60
2023-10-31T12:52:06.579Z,4.20
2023-10-31T12:54:50.168Z,6.60
2023-10-31T12:57:36.705Z,4.30
2023-10-31T13:00:27.040Z,3.90
2023-10-31T13:03:11.138Z,3.40
2023-10-31T13:05:56.949Z,6.60
2023-10-31T13:08:40.268Z,4.40
2023-10-31T13:11:26.965Z,2.50
2023-10-31T13:14:15.425Z,2.50
2023-10-31T13:16:58.993Z,2.50
2023-10-31T13:19:42.631Z,3.10
2023-10-31T13:22:26.025Z,2.60
2023-10-31T13:25:14.725Z,3.80
2023-10-31T13:28:05.183Z,5.30
2023-10-31T13:30:49.874Z,4.30
2023-10-31T13:33:36.369Z,4.40
2023-10-31T13:36:23.690Z,1.40
2023-10-31T13:39:07.500Z,4.10
2023-10-31T13:41:55.551Z,4.50
2023-10-31T13:44:39.277Z,5.70
2023-10-31T13:47:22.462Z,5.50
2023-10-31T13:50:06.837Z,4.90
2023-10-31T13:52:55.408Z,10.20
2023-10-31T13:55:42.172Z,4.40
2023-10-31T13:58:25.803Z,3.40
2023-10-31T14:01:09.000Z,3.30
2023-10-31T14:03:55.567Z,3.50
2023-10-31T14:06:39.165Z,6.90
2023-10-31T14:09:33.070Z,2.80
2023-10-31T14:12:36.456Z,4.30
2023-10-31T14:15:23.288Z,2.90
2023-10-31T14:18:06.793Z,5.50
2023-10-31T14:20:53.194Z,2.60
2023-10-31T14:23:55.885Z,4.00
2023-10-31T14:26:49.928Z,3.80
2023-10-31T14:29:44.727Z,10.40
2023-10-31T14:32:32.586Z,3.60
2023-10-31T14:35:28.264Z,17.20
2023-10-31T14:38:23.284Z,7.30
2023-10-31T14:41:17.275Z,7.00
2023-10-31T14:44:02.203Z,9.70
2023-10-31T14:46:45.612Z,3.30
2023-10-31T14:49:52.176Z,4.70
2023-10-31T14:52:38.047Z,3.80
2023-10-31T14:55:28.657Z,6.30
2023-10-31T14:58:14.759Z,2.30
2023-10-31T15:00:58.184Z,6.10
2023-10-31T15:03:46.154Z,7.80
2023-10-31T15:06:32.245Z,3.90
2023-10-31T15:09:20.326Z,3.60
2023-10-31T15:12:09.887Z,7.90
2023-10-31T15:14:56.313Z,4.40
2023-10-31T15:17:42.629Z,4.70
2023-10-31T15:20:28.826Z,4.90
2023-10-31T15:23:15.242Z,3.00
2023-10-31T15:26:25.844Z,4.00
2023-10-31T15:29:11.659Z,3.40
2023-10-31T15:31:56.640Z,4.80
2023-10-31T15:34:46.233Z,3.40
2023-10-31T15:37:31.918Z,2.60
2023-10-31T15:40:15.311Z,6.10
2023-10-31T15:43:01.167Z,3.90
2023-10-31T15:45:47.062Z,3.80
2023-10-31T15:48:30.194Z,5.20
2023-10-31T15:51:13.575Z,2.50
2023-10-31T15:54:03.363Z,7.10
2023-10-31T15:56:47.808Z,6.40
2023-10-31T15:59:31.326Z,4.90
2023-10-31T16:02:19.806Z,10.50
2023-10-31T16:05:08.147Z,6.90
2023-10-31T16:07:51.531Z,4.90
2023-10-31T16:10:34.648Z,3.80
2023-10-31T16:13:17.853Z,6.80
2023-10-31T16:16:00.947Z,7.50
2023-10-31T16:18:44.705Z,6.70
2023-10-31T16:21:28.147Z,5.00
2023-10-31T16:24:14.029Z,6.20
2023-10-31T16:27:05.835Z,6.60
2023-10-31T16:30:03.228Z,6.00
2023-10-31T16:32:49.194Z,9.90
2023-10-31T16:35:40.104Z,5.80
2023-10-31T16:38:26.129Z,8.70
2023-10-31T16:41:11.237Z,7.70
2023-10-31T16:43:54.742Z,7.30
2023-10-31T16:46:44.356Z,8.00
2023-10-31T16:49:27.562Z,9.10
2023-10-31T16:52:30.899Z,10.40
2023-10-31T16:55:14.017Z,6.10
2023-10-31T16:58:02.721Z,5.20
2023-10-31T17:00:46.244Z,4.70
2023-10-31T17:03:29.689Z,5.40
2023-10-31T17:06:16.868Z,15.00
2023-10-31T17:09:02.948Z,7.70
2023-10-31T17:11:48.901Z,3.70
2023-10-31T17:14:32.294Z,3.10
2023-10-31T17:17:26.256Z,3.70
2023-10-31T17:20:30.030Z,2.60
2023-10-31T17:23:15.899Z,7.80
2023-10-31T17:26:01.418Z,5.80
2023-10-31T17:28:44.888Z,5.50
2023-10-31T17:31:35.590Z,2.50
2023-10-31T17:34:19.282Z,5.10
2023-10-31T17:37:11.071Z,3.20
2023-10-31T17:40:03.566Z,4.00
2023-10-31T17:42:46.760Z,3.80
2023-10-31T17:45:40.495Z,8.50
2023-10-31T17:48:35.209Z,6.00
2023-10-31T17:51:21.078Z,2.30
2023-10-31T17:54:10.242Z,5.40
2023-10-31T17:56:56.416Z,6.40
2023-10-31T17:59:39.749Z,5.60
2023-10-31T18:02:26.321Z,8.70
2023-10-31T18:05:35.308Z,7.60
2023-10-31T18:08:18.563Z,11.30
2023-10-31T18:11:04.122Z,7.70
2023-10-31T18:14:11.050Z,6.20
2023-10-31T18:16:54.388Z,9.40
2023-10-31T18:19:38.075Z,6.30
2023-10-31T18:22:21.304Z,4.40
2023-10-31T18:25:05.129Z,3.60
2023-10-31T18:27:58.492Z,5.60
2023-10-31T18:30:41.967Z,2.90
2023-10-31T18:33:28.782Z,3.50
2023-10-31T18:36:24.060Z,4.80
2023-10-31T18:39:16.817Z,6.80
2023-10-31T18:42:23.889Z,5.70
2023-10-31T18:45:14.853Z,7.30
2023-10-31T18:48:01.381Z,3.00
2023-10-31T18:50:45.269Z,5.40
2023-10-31T18:53:57.756Z,3.60
2023-10-31T18:57:01.191Z,4.80
2023-10-31T18:59:47.493Z,5.70
2023-10-31T19:02:30.765Z,7.70
2023-10-31T19:05:33.567Z,4.20
2023-10-31T19:08:16.989Z,3.90
2023-10-31T19:11:06.937Z,5.80
2023-10-31T19:13:59.494Z,4.90
2023-10-31T19:16:51.842Z,4.40
2023-10-31T19:19:43.417Z,6.20
2023-10-31T19:22:26.778Z,4.50
2023-10-31T19:25:09.901Z,5.70
2023-10-31T19:27:53.186Z,5.10
2023-10-31T19:30:36.539Z,2.50
2023-10-31T19:33:21.913Z,4.70
2023-10-31T19:36:06.379Z,4.60
2023-10-31T19:38:49.550Z,3.00
2023-10-31T19:41:37.401Z,5.30
2023-10-31T19:44:28.131Z,4.40
2023-10-31T19:47:14.046Z,1.90
2023-10-31T19:50:00.450Z,5.30
2023-10-31T19:52:47.173Z,3.50
2023-10-31T19:55:33.484Z,3.50
2023-10-31T19:58:28.752Z,3.90
2023-10-31T20:01:12.090Z,4.60
2023-10-31T20:04:06.449Z,3.20
2023-10-31T20:06:50.462Z,2.70
2023-10-31T20:09:43.296Z,3.50
2023-10-31T20:15:32.631Z,3.40
2023-10-31T20:18:20.104Z,4.70
2023-10-31T20:21:06.241Z,3.60
2023-10-31T20:23:51.879Z,3.70
2023-10-31T20:26:38.213Z,4.70
2023-10-31T20:29:24.215Z,4.90
2023-10-31T20:32:17.047Z,3.10
2023-10-31T20:35:03.736Z,5.50
2023-10-31T20:37:50.058Z,4.70
2023-10-31T20:40:38.141Z,3.30
2023-10-31T20:43:23.872Z,6.30
2023-10-31T20:46:09.899Z,3.60
2023-10-31T20:48:56.007Z,7.50
2023-10-31T20:51:41.741Z,4.80
2023-10-31T20:54:27.771Z,6.40
2023-10-31T20:57:14.078Z,7.00
2023-10-31T21:00:23.403Z,5.30
2023-10-31T21:03:07.797Z,3.80
2023-10-31T21:05:53.377Z,7.40
2023-10-31T21:08:48.305Z,2.60
2023-10-31T21:11:40.828Z,3.10
2023-10-31T21:14:29.184Z,5.50
2023-10-31T21:17:20.871Z,3.20
2023-10-31T21:20:24.496Z,5.70
2023-10-31T21:23:16.864Z,3.60
2023-10-31T21:26:07.907Z,4.50
2023-10-31T21:28:56.681Z,3.20
2023-10-31T21:31:43.182Z,6.10
2023-10-31T21:34:26.782Z,3.40
2023-10-31T21:37:16.246Z,3.90
2023-10-31T21:40:01.663Z,2.60
2023-10-31T21:42:50.158Z,4.50
2023-10-31T21:45:56.170Z,2.30
2023-10-31T21:48:59.524Z,3.40
2023-10-31T21:51:43.378Z,3.70
2023-10-31T21:54:31.072Z,2.60
2023-10-31T21:57:19.751Z,2.60
2023-10-31T22:00:26.335Z,2.60
2023-10-31T22:03:09.789Z,2.90
2023-10-31T22:06:03.971Z,3.30
2023-10-31T22:08:47.236Z,3.20
2023-10-31T22:11:36.508Z,2.90
2023-10-31T22:14:26.752Z,4.90
2023-10-31T22:17:15.544Z,5.00
2023-10-31T22:20:05.800Z,8.30
2023-10-31T22:23:01.988Z,3.30
2023-10-31T22:25:45.542Z,4.30
2023-10-31T22:28:29.073Z,4.60
2023-10-31T22:31:20.708Z,5.50
2023-10-31T22:34:05.397Z,3.90
2023-10-31T22:37:02.179Z,6.50
2023-10-31T22:39:57.361Z,5.10
2023-10-31T22:42:57.697Z,8.60
2023-10-31T22:46:07.092Z,5.90
2023-10-31T22:49:26.994Z,5.70
2023-10-31T22:52:30.400Z,4.70
2023-10-31T22:55:43.053Z,4.70
2023-10-31T22:59:09.955Z,8.80
2023-10-31T23:01:58.083Z,8.50
2023-10-31T23:05:07.735Z,8.60
2023-10-31T23:08:14.611Z,9.20
2023-10-31T23:11:01.564Z,8.40
2023-10-31T23:14:08.089Z,8.20
2023-10-31T23:17:07.809Z,10.80
2023-10-31T23:20:11.727Z,8.10
2023-10-31T23:23:02.957Z,8.30
2023-10-31T23:25:48.674Z,5.30
2023-10-31T23:28:55.216Z,6.60
2023-10-31T23:31:46.101Z,6.50
2023-10-31T23:34:37.974Z,6.50
2023-10-31T23:37:26.031Z,5.50
2023-10-31T23:40:52.972Z,8.60
2023-10-31T23:43:42.094Z,9.80
2023-10-31T23:46:54.859Z,5.30
2023-10-31T23:49:40.990Z,8.40
2023-10-31T23:52:40.224Z,8.60
2023-10-31T23:55:26.069Z,7.30
2023-10-31T23:58:46.959Z,5.70
